sensor_id;sensor_type;location;lat;lon;timestamp;P1;durP1;ratioP1;P2;durP2;ratioP2
21731;SDS011;11028;51.156;17.130;2023-08-12T00:05:10;11.35;;;7.10;;
21731;SDS011;11028;51.156;17.130;2023-08-12T00:12:29;10.10;;;7.25;;
21731;SDS011;11028;51.156;17.130;2023-08-12T00:19:49;15.90;;;7.05;;
21731;SDS011;11028;51.156;17.130;2023-08-12T00:27:08;9.32;;;7.13;;
21731;SDS011;11028;51.156;17.130;2023-08-12T00:34:27;9.40;;;7.13;;
21731;SDS011;11028;51.156;17.130;2023-08-12T00:41:46;12.07;;;7.45;;
21731;SDS011;11028;51.156;17.130;2023-08-12T00:49:05;12.70;;;7.82;;
21731;SDS011;11028;51.156;17.130;2023-08-12T00:56:23;11.00;;;7.43;;
21731;SDS011;11028;51.156;17.130;2023-08-12T01:03:43;13.68;;;7.90;;
21731;SDS011;11028;51.156;17.130;2023-08-12T01:11:03;17.02;;;9.15;;
21731;SDS011;11028;51.156;17.130;2023-08-12T01:18:24;17.65;;;9.15;;
21731;SDS011;11028;51.156;17.130;2023-08-12T01:25:45;15.15;;;9.55;;
21731;SDS011;11028;51.156;17.130;2023-08-12T01:33:06;14.10;;;8.55;;
21731;SDS011;11028;51.156;17.130;2023-08-12T01:40:26;18.67;;;9.48;;
21731;SDS011;11028;51.156;17.130;2023-08-12T01:47:48;16.85;;;9.23;;
21731;SDS011;11028;51.156;17.130;2023-08-12T01:55:08;14.55;;;9.23;;
21731;SDS011;11028;51.156;17.130;2023-08-12T02:02:26;15.55;;;9.60;;
21731;SDS011;11028;51.156;17.130;2023-08-12T02:09:46;15.98;;;8.75;;
21731;SDS011;11028;51.156;17.130;2023-08-12T02:17:05;14.00;;;8.88;;
21731;SDS011;11028;51.156;17.130;2023-08-12T02:24:24;14.50;;;8.95;;
21731;SDS011;11028;51.156;17.130;2023-08-12T02:31:44;10.32;;;8.63;;
21731;SDS011;11028;51.156;17.130;2023-08-12T02:39:03;10.90;;;8.40;;
21731;SDS011;11028;51.156;17.130;2023-08-12T02:46:21;11.93;;;8.25;;
21731;SDS011;11028;51.156;17.130;2023-08-12T02:53:43;15.65;;;9.57;;
21731;SDS011;11028;51.156;17.130;2023-08-12T03:01:02;16.17;;;9.63;;
21731;SDS011;11028;51.156;17.130;2023-08-12T03:08:22;15.27;;;8.63;;
21731;SDS011;11028;51.156;17.130;2023-08-12T03:15:43;15.02;;;9.30;;
21731;SDS011;11028;51.156;17.130;2023-08-12T03:23:02;12.25;;;9.45;;
21731;SDS011;11028;51.156;17.130;2023-08-12T03:30:21;12.70;;;9.40;;
21731;SDS011;11028;51.156;17.130;2023-08-12T03:37:41;15.85;;;9.70;;
21731;SDS011;11028;51.156;17.130;2023-08-12T03:45:00;13.35;;;9.13;;
21731;SDS011;11028;51.156;17.130;2023-08-12T03:52:19;15.88;;;9.95;;
21731;SDS011;11028;51.156;17.130;2023-08-12T03:59:39;13.93;;;8.65;;
21731;SDS011;11028;51.156;17.130;2023-08-12T04:06:57;13.18;;;8.32;;
21731;SDS011;11028;51.156;17.130;2023-08-12T04:14:16;11.13;;;8.60;;
21731;SDS011;11028;51.156;17.130;2023-08-12T04:21:36;12.10;;;7.60;;
21731;SDS011;11028;51.156;17.130;2023-08-12T04:28:54;12.40;;;8.57;;
21731;SDS011;11028;51.156;17.130;2023-08-12T04:36:13;15.07;;;8.63;;
21731;SDS011;11028;51.156;17.130;2023-08-12T04:43:33;8.93;;;6.65;;
21731;SDS011;11028;51.156;17.130;2023-08-12T04:50:52;13.02;;;7.38;;
21731;SDS011;11028;51.156;17.130;2023-08-12T04:58:11;8.35;;;6.85;;
21731;SDS011;11028;51.156;17.130;2023-08-12T05:05:35;13.35;;;7.18;;
21731;SDS011;11028;51.156;17.130;2023-08-12T05:12:56;12.85;;;7.30;;
21731;SDS011;11028;51.156;17.130;2023-08-12T05:20:16;10.88;;;6.85;;
21731;SDS011;11028;51.156;17.130;2023-08-12T05:27:35;8.48;;;6.50;;
21731;SDS011;11028;51.156;17.130;2023-08-12T05:34:54;13.63;;;6.85;;
21731;SDS011;11028;51.156;17.130;2023-08-12T05:42:13;7.47;;;5.82;;
21731;SDS011;11028;51.156;17.130;2023-08-12T05:49:32;10.35;;;5.15;;
21731;SDS011;11028;51.156;17.130;2023-08-12T05:56:50;8.52;;;5.40;;
21731;SDS011;11028;51.156;17.130;2023-08-12T06:04:09;6.90;;;4.70;;
21731;SDS011;11028;51.156;17.130;2023-08-12T06:11:28;8.00;;;5.00;;
21731;SDS011;11028;51.156;17.130;2023-08-12T06:18:46;5.65;;;3.95;;
21731;SDS011;11028;51.156;17.130;2023-08-12T06:26:05;7.47;;;4.68;;
21731;SDS011;11028;51.156;17.130;2023-08-12T06:33:25;4.85;;;4.30;;
21731;SDS011;11028;51.156;17.130;2023-08-12T06:40:43;7.35;;;4.32;;
21731;SDS011;11028;51.156;17.130;2023-08-12T06:48:01;4.97;;;4.47;;
21731;SDS011;11028;51.156;17.130;2023-08-12T06:55:21;5.25;;;4.00;;
21731;SDS011;11028;51.156;17.130;2023-08-12T07:02:39;5.68;;;3.42;;
21731;SDS011;11028;51.156;17.130;2023-08-12T07:09:59;5.85;;;3.65;;
21731;SDS011;11028;51.156;17.130;2023-08-12T07:17:19;4.20;;;3.30;;
21731;SDS011;11028;51.156;17.130;2023-08-12T07:24:38;6.20;;;3.30;;
21731;SDS011;11028;51.156;17.130;2023-08-12T07:31:56;7.10;;;3.03;;
21731;SDS011;11028;51.156;17.130;2023-08-12T07:39:16;4.97;;;2.63;;
21731;SDS011;11028;51.156;17.130;2023-08-12T07:46:35;3.20;;;2.60;;
21731;SDS011;11028;51.156;17.130;2023-08-12T07:53:53;8.00;;;5.40;;
21731;SDS011;11028;51.156;17.130;2023-08-12T08:01:13;5.97;;;3.00;;
21731;SDS011;11028;51.156;17.130;2023-08-12T08:08:31;4.78;;;2.60;;
21731;SDS011;11028;51.156;17.130;2023-08-12T08:15:49;8.93;;;3.08;;
21731;SDS011;11028;51.156;17.130;2023-08-12T08:23:09;4.75;;;2.60;;
21731;SDS011;11028;51.156;17.130;2023-08-12T08:30:27;2.78;;;2.38;;
21731;SDS011;11028;51.156;17.130;2023-08-12T08:37:46;4.25;;;2.78;;
21731;SDS011;11028;51.156;17.130;2023-08-12T08:45:07;3.50;;;2.40;;
21731;SDS011;11028;51.156;17.130;2023-08-12T08:52:29;6.35;;;2.33;;
21731;SDS011;11028;51.156;17.130;2023-08-12T08:59:50;4.05;;;2.38;;
21731;SDS011;11028;51.156;17.130;2023-08-12T09:07:12;6.13;;;2.50;;
21731;SDS011;11028;51.156;17.130;2023-08-12T09:14:31;3.42;;;2.47;;
21731;SDS011;11028;51.156;17.130;2023-08-12T09:21:51;4.32;;;2.70;;
21731;SDS011;11028;51.156;17.130;2023-08-12T09:29:11;11.05;;;2.50;;
21731;SDS011;11028;51.156;17.130;2023-08-12T09:36:30;4.82;;;2.40;;
21731;SDS011;11028;51.156;17.130;2023-08-12T09:43:48;4.20;;;2.30;;
21731;SDS011;11028;51.156;17.130;2023-08-12T09:51:10;2.50;;;2.30;;
21731;SDS011;11028;51.156;17.130;2023-08-12T09:58:28;4.90;;;2.60;;
21731;SDS011;11028;51.156;17.130;2023-08-12T10:05:47;3.72;;;2.40;;
21731;SDS011;11028;51.156;17.130;2023-08-12T10:13:07;4.70;;;3.08;;
21731;SDS011;11028;51.156;17.130;2023-08-12T10:20:26;3.42;;;2.10;;
21731;SDS011;11028;51.156;17.130;2023-08-12T10:27:45;6.35;;;2.20;;
21731;SDS011;11028;51.156;17.130;2023-08-12T10:35:05;2.88;;;2.58;;
21731;SDS011;11028;51.156;17.130;2023-08-12T10:42:40;5.00;;;2.50;;
21731;SDS011;11028;51.156;17.130;2023-08-12T10:49:58;5.50;;;2.63;;
21731;SDS011;11028;51.156;17.130;2023-08-12T10:57:18;4.03;;;2.33;;
21731;SDS011;11028;51.156;17.130;2023-08-12T11:04:55;5.88;;;2.17;;
21731;SDS011;11028;51.156;17.130;2023-08-12T11:12:17;2.70;;;2.33;;
21731;SDS011;11028;51.156;17.130;2023-08-12T11:26:54;2.55;;;2.35;;
21731;SDS011;11028;51.156;17.130;2023-08-12T11:34:14;4.03;;;1.88;;
21731;SDS011;11028;51.156;17.130;2023-08-12T11:41:33;2.15;;;1.95;;
21731;SDS011;11028;51.156;17.130;2023-08-12T11:48:53;4.53;;;1.45;;
21731;SDS011;11028;51.156;17.130;2023-08-12T11:56:13;3.05;;;2.17;;
21731;SDS011;11028;51.156;17.130;2023-08-12T12:03:32;1.77;;;1.38;;
21731;SDS011;11028;51.156;17.130;2023-08-12T12:10:50;4.88;;;1.98;;
21731;SDS011;11028;51.156;17.130;2023-08-12T12:18:13;2.50;;;1.60;;
21731;SDS011;11028;51.156;17.130;2023-08-12T12:25:31;2.83;;;1.70;;
21731;SDS011;11028;51.156;17.130;2023-08-12T12:32:49;2.95;;;1.70;;
21731;SDS011;11028;51.156;17.130;2023-08-12T12:40:10;1.88;;;1.75;;
21731;SDS011;11028;51.156;17.130;2023-08-12T12:47:29;2.67;;;1.90;;
21731;SDS011;11028;51.156;17.130;2023-08-12T12:54:47;5.80;;;2.05;;
21731;SDS011;11028;51.156;17.130;2023-08-12T13:02:07;9.00;;;1.92;;
21731;SDS011;11028;51.156;17.130;2023-08-12T13:09:25;1.60;;;1.50;;
21731;SDS011;11028;51.156;17.130;2023-08-12T13:16:43;2.10;;;1.85;;
21731;SDS011;11028;51.156;17.130;2023-08-12T13:24:03;4.85;;;1.88;;
21731;SDS011;11028;51.156;17.130;2023-08-12T13:31:22;3.70;;;1.88;;
21731;SDS011;11028;51.156;17.130;2023-08-12T13:38:40;3.13;;;2.30;;
21731;SDS011;11028;51.156;17.130;2023-08-12T13:46:00;4.00;;;2.00;;
21731;SDS011;11028;51.156;17.130;2023-08-12T13:53:18;7.07;;;2.28;;
21731;SDS011;11028;51.156;17.130;2023-08-12T14:00:37;5.28;;;2.03;;
21731;SDS011;11028;51.156;17.130;2023-08-12T14:07:57;2.17;;;1.65;;
21731;SDS011;11028;51.156;17.130;2023-08-12T14:15:15;2.80;;;1.80;;
21731;SDS011;11028;51.156;17.130;2023-08-12T14:22:34;4.47;;;2.00;;
21731;SDS011;11028;51.156;17.130;2023-08-12T14:29:53;3.90;;;2.20;;
21731;SDS011;11028;51.156;17.130;2023-08-12T14:37:12;3.47;;;2.58;;
21731;SDS011;11028;51.156;17.130;2023-08-12T14:44:31;3.17;;;1.70;;
21731;SDS011;11028;51.156;17.130;2023-08-12T14:51:55;2.95;;;2.20;;
21731;SDS011;11028;51.156;17.130;2023-08-12T14:59:13;2.65;;;1.92;;
21731;SDS011;11028;51.156;17.130;2023-08-12T15:06:31;7.63;;;2.25;;
21731;SDS011;11028;51.156;17.130;2023-08-12T15:13:51;3.05;;;2.00;;
21731;SDS011;11028;51.156;17.130;2023-08-12T15:21:09;2.15;;;1.95;;
21731;SDS011;11028;51.156;17.130;2023-08-12T15:28:28;2.08;;;1.85;;
21731;SDS011;11028;51.156;17.130;2023-08-12T15:35:47;2.30;;;1.60;;
21731;SDS011;11028;51.156;17.130;2023-08-12T15:43:06;2.83;;;1.98;;
21731;SDS011;11028;51.156;17.130;2023-08-12T15:50:24;4.00;;;2.13;;
21731;SDS011;11028;51.156;17.130;2023-08-12T15:57:44;3.83;;;2.00;;
21731;SDS011;11028;51.156;17.130;2023-08-12T16:05:02;3.45;;;2.33;;
21731;SDS011;11028;51.156;17.130;2023-08-12T16:12:21;2.75;;;2.20;;
21731;SDS011;11028;51.156;17.130;2023-08-12T16:19:41;3.55;;;2.30;;
21731;SDS011;11028;51.156;17.130;2023-08-12T16:27:02;2.72;;;2.22;;
21731;SDS011;11028;51.156;17.130;2023-08-12T16:34:21;2.40;;;2.00;;
21731;SDS011;11028;51.156;17.130;2023-08-12T16:41:41;4.38;;;2.05;;
21731;SDS011;11028;51.156;17.130;2023-08-12T16:48:59;6.13;;;2.30;;
21731;SDS011;11028;51.156;17.130;2023-08-12T16:56:17;2.60;;;2.38;;
21731;SDS011;11028;51.156;17.130;2023-08-12T17:03:37;4.80;;;2.42;;
21731;SDS011;11028;51.156;17.130;2023-08-12T17:10:55;4.85;;;2.30;;
21731;SDS011;11028;51.156;17.130;2023-08-12T17:18:13;4.65;;;2.70;;
21731;SDS011;11028;51.156;17.130;2023-08-12T17:25:33;6.80;;;3.33;;
21731;SDS011;11028;51.156;17.130;2023-08-12T17:32:51;5.97;;;2.30;;
21731;SDS011;11028;51.156;17.130;2023-08-12T17:40:10;3.45;;;2.50;;
21731;SDS011;11028;51.156;17.130;2023-08-12T17:47:31;6.80;;;3.13;;
21731;SDS011;11028;51.156;17.130;2023-08-12T17:54:50;8.52;;;3.38;;
21731;SDS011;11028;51.156;17.130;2023-08-12T18:02:08;7.55;;;3.42;;
21731;SDS011;11028;51.156;17.130;2023-08-12T18:09:28;7.63;;;3.67;;
21731;SDS011;11028;51.156;17.130;2023-08-12T18:16:46;6.22;;;4.00;;
21731;SDS011;11028;51.156;17.130;2023-08-12T18:24:05;7.63;;;4.55;;
21731;SDS011;11028;51.156;17.130;2023-08-12T18:31:25;7.38;;;3.20;;
21731;SDS011;11028;51.156;17.130;2023-08-12T18:38:43;5.82;;;2.67;;
21731;SDS011;11028;51.156;17.130;2023-08-12T18:46:02;3.53;;;2.25;;
21731;SDS011;11028;51.156;17.130;2023-08-12T18:53:22;4.10;;;2.60;;
21731;SDS011;11028;51.156;17.130;2023-08-12T19:00:41;4.90;;;2.90;;
21731;SDS011;11028;51.156;17.130;2023-08-12T19:07:59;5.95;;;3.03;;
21731;SDS011;11028;51.156;17.130;2023-08-12T19:15:20;4.50;;;2.55;;
21731;SDS011;11028;51.156;17.130;2023-08-12T19:22:38;7.40;;;3.00;;
21731;SDS011;11028;51.156;17.130;2023-08-12T19:29:56;5.57;;;2.90;;
21731;SDS011;11028;51.156;17.130;2023-08-12T19:37:16;6.57;;;3.53;;
21731;SDS011;11028;51.156;17.130;2023-08-12T19:44:34;4.90;;;3.30;;
21731;SDS011;11028;51.156;17.130;2023-08-12T19:51:53;8.70;;;3.47;;
21731;SDS011;11028;51.156;17.130;2023-08-12T19:59:13;5.43;;;3.55;;
21731;SDS011;11028;51.156;17.130;2023-08-12T20:06:31;5.40;;;3.00;;
21731;SDS011;11028;51.156;17.130;2023-08-12T20:13:49;8.18;;;3.78;;
21731;SDS011;11028;51.156;17.130;2023-08-12T20:21:09;7.72;;;3.42;;
21731;SDS011;11028;51.156;17.130;2023-08-12T20:28:27;5.82;;;3.97;;
21731;SDS011;11028;51.156;17.130;2023-08-12T20:35:46;8.43;;;3.60;;
21731;SDS011;11028;51.156;17.130;2023-08-12T20:43:05;4.70;;;3.83;;
21731;SDS011;11028;51.156;17.130;2023-08-12T20:50:24;8.23;;;4.10;;
21731;SDS011;11028;51.156;17.130;2023-08-12T20:57:42;6.32;;;4.10;;
21731;SDS011;11028;51.156;17.130;2023-08-12T21:05:04;6.68;;;3.80;;
21731;SDS011;11028;51.156;17.130;2023-08-12T21:12:23;7.38;;;3.70;;
21731;SDS011;11028;51.156;17.130;2023-08-12T21:19:41;7.50;;;3.65;;
21731;SDS011;11028;51.156;17.130;2023-08-12T21:27:01;7.75;;;3.38;;
21731;SDS011;11028;51.156;17.130;2023-08-12T21:34:19;6.85;;;4.00;;
21731;SDS011;11028;51.156;17.130;2023-08-12T21:41:38;10.73;;;3.53;;
21731;SDS011;11028;51.156;17.130;2023-08-12T21:48:58;7.63;;;3.53;;
21731;SDS011;11028;51.156;17.130;2023-08-12T21:56:16;5.18;;;3.53;;
21731;SDS011;11028;51.156;17.130;2023-08-12T22:03:34;7.80;;;3.13;;
21731;SDS011;11028;51.156;17.130;2023-08-12T22:10:54;5.50;;;2.78;;
21731;SDS011;11028;51.156;17.130;2023-08-12T22:18:13;6.18;;;2.72;;
21731;SDS011;11028;51.156;17.130;2023-08-12T22:25:31;4.38;;;2.90;;
21731;SDS011;11028;51.156;17.130;2023-08-12T22:32:51;3.20;;;2.80;;
21731;SDS011;11028;51.156;17.130;2023-08-12T22:40:09;5.55;;;3.40;;
21731;SDS011;11028;51.156;17.130;2023-08-12T22:47:28;5.28;;;2.90;;
21731;SDS011;11028;51.156;17.130;2023-08-12T22:54:47;7.00;;;2.97;;
21731;SDS011;11028;51.156;17.130;2023-08-12T23:02:06;5.88;;;3.03;;
21731;SDS011;11028;51.156;17.130;2023-08-12T23:09:24;5.20;;;2.90;;
21731;SDS011;11028;51.156;17.130;2023-08-12T23:16:44;5.10;;;2.72;;
21731;SDS011;11028;51.156;17.130;2023-08-12T23:24:03;9.02;;;3.05;;
21731;SDS011;11028;51.156;17.130;2023-08-12T23:31:21;3.67;;;3.10;;
21731;SDS011;11028;51.156;17.130;2023-08-12T23:38:41;4.28;;;2.80;;
21731;SDS011;11028;51.156;17.130;2023-08-12T23:45:59;3.47;;;2.53;;
21731;SDS011;11028;51.156;17.130;2023-08-12T23:53:18;4.35;;;3.00;;
